Time;durP1;ratioP1;P1;durP2;ratioP2;P2;SDS_P1;SDS_P2;PMS_P1;PMS_P2;Temp;Humidity;BMP_temperature;BMP_pressure;BME280_temperature;BME280_humidity;BME280_pressure;Samples;Min_cycle;Max_cycle;Signal;HPM_P1;HPM_P2
2022/12/31 00:00:11;;;;;;;0.50;0.50;;;;;;;10.27;99.80;96664.69;29395;308;63009;-52
2022/12/31 00:00:59;;;;;;;0.50;0.50;;;;;;;10.20;100.00;96658.84;29395;266;63005;-53
2022/12/31 00:01:42;;;;;;;0.50;0.50;;;;;;;10.24;100.00;96660.66;29394;249;64009;-52
2022/12/31 00:02:14;;;;;;;0.50;0.50;;;;;;;10.22;100.00;96664.78;29395;230;63005;-52
2022/12/31 00:02:49;;;;;;;0.60;0.60;;;;;;;10.20;100.00;96664.25;29395;267;63009;-61
2022/12/31 00:03:20;;;;;;;0.50;0.50;;;;;;;10.21;100.00;96665.88;29395;206;63004;-52
2022/12/31 00:03:54;;;;;;;0.50;0.50;;;;;;;10.24;100.00;96668.00;29395;272;63009;-63
2022/12/31 00:04:27;;;;;;;0.50;0.50;;;;;;;10.22;100.00;96667.47;29395;202;63004;-65
2022/12/31 00:04:59;;;;;;;0.60;0.60;;;;;;;10.20;100.00;96659.62;29395;223;63009;-53
2022/12/31 00:05:31;;;;;;;0.47;0.47;;;;;;;10.21;100.00;96663.16;29395;244;63004;-64
2022/12/31 00:06:14;;;;;;;0.50;0.50;;;;;;;10.26;100.00;96660.38;29395;243;63008;-52
2022/12/31 00:06:48;;;;;;;0.50;0.50;;;;;;;10.27;100.00;96661.97;29394;210;64005;-51
2022/12/31 00:07:26;;;;;;;0.50;0.50;;;;;;;10.24;100.00;96665.28;29394;197;64009;-53
2022/12/31 00:08:01;;;;;;;0.50;0.50;;;;;;;10.25;100.00;96666.88;29395;210;63005;-53
2022/12/31 00:08:34;;;;;;;0.50;0.50;;;;;;;10.29;100.00;96662.50;29395;312;63009;-53
2022/12/31 00:09:07;;;;;;;0.50;0.50;;;;;;;10.32;100.00;96670.03;29395;374;63005;-53
2022/12/31 00:09:39;;;;;;;0.50;0.50;;;;;;;10.34;99.71;96665.13;29395;262;63009;-52
2022/12/31 00:10:12;;;;;;;0.50;0.50;;;;;;;10.34;99.92;96674.06;29395;237;63005;-52
2022/12/31 00:10:43;;;;;;;0.50;0.50;;;;;;;10.35;100.00;96672.16;29395;196;63009;-53
2022/12/31 00:11:15;;;;;;;0.50;0.50;;;;;;;10.34;100.00;96667.84;29395;202;63004;-63
2022/12/31 00:11:48;;;;;;;0.50;0.50;;;;;;;10.32;99.66;96676.25;29395;251;63009;-52
2022/12/31 00:12:20;;;;;;;0.50;0.50;;;;;;;10.31;99.80;96679.28;29394;265;64004;-54
2022/12/31 00:12:51;;;;;;;0.50;0.50;;;;;;;10.31;99.74;96671.13;29394;229;64009;-55
2022/12/31 00:13:23;;;;;;;0.50;0.50;;;;;;;10.32;99.74;96667.31;29395;197;63004;-52
2022/12/31 00:13:55;;;;;;;0.50;0.50;;;;;;;10.32;99.51;96668.13;29395;219;63008;-53
2022/12/31 00:14:26;;;;;;;0.50;0.50;;;;;;;10.31;99.83;96681.97;29395;339;63008;-53
2022/12/31 00:14:57;;;;;;;0.50;0.50;;;;;;;10.30;99.39;96670.31;29395;205;63009;-61
2022/12/31 00:15:29;;;;;;;0.50;0.50;;;;;;;10.29;99.54;96670.63;29394;274;64005;-54
2022/12/31 00:16:13;;;;;;;0.50;0.50;;;;;;;10.29;99.27;96673.34;29395;216;63024;-53
2022/12/31 00:16:44;;;;;;;0.50;0.50;;;;;;;10.27;99.54;96673.62;29395;334;63005;-53
2022/12/31 00:17:15;;;;;;;0.50;0.50;;;;;;;10.29;99.97;96673.34;29395;238;63009;-53
2022/12/31 00:17:51;;;;;;;0.50;0.50;;;;;;;10.27;99.87;96680.97;29395;241;63005;-52
2022/12/31 00:18:22;;;;;;;0.50;0.50;;;;;;;10.32;100.00;96672.75;29394;435;64009;-52
2022/12/31 00:19:00;;;;;;;0.50;0.50;;;;;;;10.36;100.00;96681.91;29395;230;63004;-52
2022/12/31 00:19:31;;;;;;;0.50;0.50;;;;;;;10.33;99.59;96680.59;29395;314;63009;-53
2022/12/31 00:20:05;;;;;;;0.50;0.50;;;;;;;10.34;99.91;96675.97;29395;229;63004;-53
2022/12/31 00:20:41;;;;;;;0.50;0.50;;;;;;;10.31;99.70;96676.56;29395;198;63009;-53
2022/12/31 00:21:14;;;;;;;0.50;0.50;;;;;;;10.32;100.00;96680.88;29394;274;64004;-64
2022/12/31 00:21:45;;;;;;;0.50;0.50;;;;;;;10.31;99.75;96673.84;29395;202;63009;-52
2022/12/31 00:22:16;;;;;;;0.50;0.50;;;;;;;10.33;99.68;96674.34;29395;540;63005;-53
2022/12/31 00:22:48;;;;;;;0.50;0.50;;;;;;;10.30;99.70;96675.75;29395;260;63009;-54
2022/12/31 00:23:19;;;;;;;0.60;0.60;;;;;;;10.31;100.00;96676.56;29396;234;63005;-52
2022/12/31 00:23:51;;;;;;;0.50;0.50;;;;;;;10.34;99.96;96675.97;29395;233;63009;-53
2022/12/31 00:24:22;;;;;;;0.50;0.50;;;;;;;10.36;99.86;96677.28;29395;333;63005;-52
2022/12/31 00:24:55;;;;;;;0.50;0.50;;;;;;;10.36;99.71;96684.63;29394;418;64009;-60
2022/12/31 00:25:30;;;;;;;0.50;0.50;;;;;;;10.39;99.85;96682.12;29395;310;63005;-54
2022/12/31 00:26:12;;;;;;;0.50;0.50;;;;;;;10.38;99.28;96687.84;29395;377;63009;-53
2022/12/31 00:26:43;;;;;;;0.50;0.50;;;;;;;10.38;99.37;96687.84;29395;234;63009;-52
2022/12/31 00:27:15;;;;;;;0.50;0.50;;;;;;;10.37;98.92;96686.22;29395;241;63009;-52
2022/12/31 00:27:46;;;;;;;0.50;0.50;;;;;;;10.34;99.23;96697.66;29394;258;64004;-53
2022/12/31 00:28:17;;;;;;;0.50;0.50;;;;;;;10.36;98.97;96684.63;29395;197;63008;-53
2022/12/31 00:28:49;;;;;;;0.50;0.50;;;;;;;10.36;99.04;96698.97;29395;232;63004;-52
2022/12/31 00:29:21;;;;;;;0.50;0.50;;;;;;;10.38;98.91;96704.12;29395;383;63009;-52
2022/12/31 00:29:52;;;;;;;0.50;0.50;;;;;;;10.38;98.74;96698.69;29394;198;64005;-52
2022/12/31 00:30:23;;;;;;;0.50;0.50;;;;;;;10.40;99.13;96699.16;29395;228;63009;-53
2022/12/31 00:30:55;;;;;;;0.50;0.50;;;;;;;10.40;99.34;96704.59;29395;237;63005;-60
2022/12/31 00:31:33;;;;;;;0.52;0.52;;;;;;;10.40;99.26;96701.88;29395;199;63005;-52
2022/12/31 00:32:07;;;;;;;0.50;0.50;;;;;;;10.39;99.19;96697.59;29394;199;64005;-53
2022/12/31 00:32:38;;;;;;;0.50;0.50;;;;;;;10.39;99.19;96705.72;29395;235;63009;-62
2022/12/31 00:33:10;;;;;;;0.50;0.50;;;;;;;10.39;99.63;96700.31;29395;229;63005;-53
2022/12/31 00:33:43;;;;;;;0.50;0.50;;;;;;;10.39;99.45;96711.16;29394;335;64009;-53
2022/12/31 00:34:14;;;;;;;0.50;0.50;;;;;;;10.40;99.27;96710.81;29394;496;64004;-53
2022/12/31 00:34:45;;;;;;;0.50;0.50;;;;;;;10.37;99.14;96708.72;29395;248;63009;-53
2022/12/31 00:35:17;;;;;;;0.50;0.50;;;;;;;10.38;99.33;96709.53;29395;320;63004;-52
2022/12/31 00:35:48;;;;;;;0.50;0.50;;;;;;;10.36;99.12;96711.75;29395;198;63008;-52
2022/12/31 00:36:23;;;;;;;0.50;0.50;;;;;;;10.36;99.63;96711.75;29395;536;63004;-53
2022/12/31 00:36:54;;;;;;;0.50;0.50;;;;;;;10.39;99.02;96706.53;29395;544;63009;-64
2022/12/31 00:37:25;;;;;;;0.50;0.50;;;;;;;10.41;99.18;96708.91;29395;375;63005;-52
2022/12/31 00:37:56;;;;;;;0.50;0.50;;;;;;;10.41;98.79;96708.91;29395;294;63009;-63
2022/12/31 00:38:28;;;;;;;0.47;0.47;;;;;;;10.40;99.10;96712.72;29395;341;63005;-53
2022/12/31 00:39:01;;;;;;;0.40;0.40;;;;;;;10.40;99.01;96718.16;29394;244;63997;-53
2022/12/31 00:39:32;;;;;;;0.50;0.50;;;;;;;10.41;99.07;96703.50;29395;259;63005;-62
2022/12/31 00:40:05;;;;;;;0.60;0.60;;;;;;;10.46;98.60;96708.84;29395;222;63009;-52
2022/12/31 00:40:36;;;;;;;0.50;0.50;;;;;;;10.47;98.93;96702.31;29395;247;63005;-52
2022/12/31 00:41:08;;;;;;;0.50;0.50;;;;;;;10.48;98.90;96703.13;29394;252;64009;-52
2022/12/31 00:41:39;;;;;;;0.50;0.50;;;;;;;10.45;98.88;96704.50;29395;202;63004;-53
2022/12/31 00:42:10;;;;;;;0.50;0.50;;;;;;;10.43;99.14;96695.88;29395;239;63009;-53
2022/12/31 00:42:42;;;;;;;0.50;0.50;;;;;;;10.44;99.23;96708.31;29395;239;63011;-52
2022/12/31 00:43:14;;;;;;;0.50;0.50;;;;;;;10.45;98.86;96701.81;29395;245;63009;-52
2022/12/31 00:43:46;;;;;;;0.50;0.50;;;;;;;10.45;98.71;96704.50;29395;362;63004;-52
2022/12/31 00:44:17;;;;;;;0.50;0.50;;;;;;;10.46;98.97;96710.75;29395;219;63009;-53
2022/12/31 00:44:48;;;;;;;0.50;0.50;;;;;;;10.45;99.17;96707.22;29395;207;63005;-52
2022/12/31 00:45:19;;;;;;;0.50;0.50;;;;;;;10.46;98.91;96705.31;29395;251;63009;-52
2022/12/31 00:45:51;;;;;;;0.50;0.50;;;;;;;10.46;99.02;96706.13;29394;219;64005;-52
2022/12/31 00:46:23;;;;;;;0.50;0.50;;;;;;;10.45;99.09;96709.94;29395;245;63009;-53
2022/12/31 00:46:55;;;;;;;0.50;0.50;;;;;;;10.44;98.98;96713.75;29394;228;64005;-53
2022/12/31 00:47:26;;;;;;;0.50;0.50;;;;;;;10.49;98.54;96704.72;29395;346;63009;-52
2022/12/31 00:47:58;;;;;;;0.50;0.50;;;;;;;10.52;98.44;96713.09;29395;256;63005;-53
2022/12/31 00:48:29;;;;;;;0.50;0.50;;;;;;;10.56;98.29;96711.41;29395;216;63009;-52
2022/12/31 00:49:01;;;;;;;0.50;0.50;;;;;;;10.54;97.96;96716.31;29395;397;63004;-52
2022/12/31 00:49:33;;;;;;;0.50;0.50;;;;;;;10.54;98.33;96713.59;29394;275;64009;-52
2022/12/31 00:50:05;;;;;;;0.50;0.50;;;;;;;10.52;97.97;96713.09;29395;236;63006;-62
2022/12/31 00:50:38;;;;;;;0.50;0.50;;;;;;;10.51;98.47;96708.75;29394;394;64009;-52
2022/12/31 00:51:13;;;;;;;0.50;0.50;;;;;;;10.53;98.02;96714.69;29395;330;63004;-52
2022/12/31 00:51:45;;;;;;;0.50;0.50;;;;;;;10.51;98.10;96716.91;29395;248;63009;-53
2022/12/31 00:52:17;;;;;;;0.50;0.50;;;;;;;10.50;97.95;96718.00;29395;291;63010;-53
2022/12/31 00:52:48;;;;;;;0.50;0.50;;;;;;;10.49;97.97;96721.00;29395;296;63009;-61
2022/12/31 00:53:20;;;;;;;0.50;0.50;;;;;;;10.54;98.32;96719.03;29395;216;63005;-52
2022/12/31 00:53:52;;;;;;;0.50;0.50;;;;;;;10.57;97.83;96717.63;29395;197;63009;-53
2022/12/31 00:54:23;;;;;;;0.50;0.50;;;;;;;10.57;97.54;96723.84;29394;327;64005;-54
2022/12/31 00:54:56;;;;;;;0.50;0.50;;;;;;;10.57;97.82;96718.44;29395;227;63009;-53
2022/12/31 00:55:30;;;;;;;0.50;0.50;;;;;;;10.57;97.85;96718.44;29395;196;63005;-52
2022/12/31 00:56:21;;;;;;;0.50;0.50;;;;;;;10.55;97.79;96714.41;29394;238;64009;-53
2022/12/31 00:56:52;;;;;;;;;;;;;;;10.55;97.77;96719.81;29996;983;6000;-52
2022/12/31 00:57:24;;;;;;;0.60;0.60;;;;;;;10.56;97.70;96716.00;29422;278;63004;-60
2022/12/31 00:57:57;;;;;;;0.50;0.50;;;;;;;10.60;97.77;96711.59;29395;250;63009;-52
2022/12/31 00:58:29;;;;;;;0.50;0.50;;;;;;;10.59;97.39;96716.22;29395;240;63004;-54
2022/12/31 00:59:00;;;;;;;0.50;0.50;;;;;;;10.63;97.52;96716.44;29394;257;64000;-52
2022/12/31 00:59:31;;;;;;;0.50;0.50;;;;;;;10.63;97.58;96722.69;29394;261;64005;-51
2022/12/31 01:00:06;;;;;;;0.50;0.50;;;;;;;10.61;97.55;96722.16;29395;377;63009;-52
2022/12/31 01:00:38;;;;;;;0.50;0.50;;;;;;;10.62;97.60;96731.91;29395;259;63005;-52
2022/12/31 01:01:17;;;;;;;0.50;0.50;;;;;;;10.68;97.42;96719.06;29395;220;63015;-54
2022/12/31 01:01:49;;;;;;;0.50;0.50;;;;;;;10.74;97.18;96732.22;29395;223;63005;-54
2022/12/31 01:02:20;;;;;;;0.50;0.50;;;;;;;10.81;96.86;96734.56;29394;202;64009;-54
2022/12/31 01:02:51;;;;;;;0.50;0.50;;;;;;;10.80;96.50;96727.53;29395;266;63004;-53
2022/12/31 01:03:23;;;;;;;0.50;0.50;;;;;;;10.80;96.44;96737.59;29395;265;63009;-53
2022/12/31 01:04:01;;;;;;;0.50;0.50;;;;;;;10.80;96.47;96726.72;29395;202;63014;-56
2022/12/31 01:04:33;;;;;;;0.50;0.50;;;;;;;10.85;95.98;96729.34;29395;241;63014;-53
2022/12/31 01:05:07;;;;;;;0.50;0.50;;;;;;;10.85;96.14;96732.88;29395;244;63004;-60
2022/12/31 01:05:38;;;;;;;0.50;0.50;;;;;;;10.87;95.93;96727.94;29395;281;63008;-54
2022/12/31 01:06:10;;;;;;;0.50;0.50;;;;;;;10.87;95.93;96735.28;29395;365;63009;-53
2022/12/31 01:06:42;;;;;;;0.50;0.50;;;;;;;10.87;95.98;96738.00;29395;219;63008;-53
2022/12/31 01:07:13;;;;;;;0.50;0.50;;;;;;;10.87;96.01;96732.56;29394;316;64005;-53
2022/12/31 01:07:46;;;;;;;0.50;0.50;;;;;;;10.86;95.62;96741.81;29395;262;63009;-53
2022/12/31 01:08:17;;;;;;;0.50;0.50;;;;;;;10.85;95.62;96732.88;29395;422;63005;-54
2022/12/31 01:08:50;;;;;;;0.50;0.50;;;;;;;10.92;95.61;96737.91;29395;375;63009;-54
2022/12/31 01:09:21;;;;;;;0.50;0.50;;;;;;;10.97;95.35;96732.41;29395;398;63005;-53
2022/12/31 01:09:53;;;;;;;0.50;0.50;;;;;;;10.96;95.44;96737.03;29394;243;64009;-55
2022/12/31 01:11:18;;;;;;;0.43;0.43;;;;;;;11.01;94.98;96739.66;29394;229;64009;-54
2022/12/31 01:11:50;;;;;;;0.50;0.50;;;;;;;11.03;94.96;96728.50;29395;254;63004;-52
2022/12/31 01:12:24;;;;;;;0.50;0.50;;;;;;;11.05;94.97;96734.44;29395;250;63009;-55
2022/12/31 01:12:55;;;;;;;0.50;0.50;;;;;;;11.03;94.61;96747.50;29395;216;63009;-53
2022/12/31 01:13:27;;;;;;;0.50;0.50;;;;;;;11.04;94.58;96744.50;29395;376;63008;-54
2022/12/31 01:14:12;;;;;;;0.50;0.50;;;;;;;11.05;94.48;96745.28;29394;253;64005;-53
2022/12/31 01:14:43;;;;;;;0.50;0.50;;;;;;;11.08;94.23;96744.69;29395;367;63009;-54
2022/12/31 01:15:15;;;;;;;0.50;0.50;;;;;;;11.13;94.02;96747.31;29395;203;63005;-56
2022/12/31 01:15:47;;;;;;;0.65;0.65;;;;;;;11.18;93.83;96744.50;29395;221;63009;-54
2022/12/31 01:16:23;;;;;;;0.50;0.50;;;;;;;11.21;93.83;96743.91;29395;241;63005;-56
2022/12/31 01:16:54;;;;;;;0.50;0.50;;;;;;;11.22;93.63;96750.94;29394;393;64009;-54
2022/12/31 01:17:26;;;;;;;0.50;0.50;;;;;;;11.23;93.34;96746.31;29395;202;63005;-68
2022/12/31 01:17:57;;;;;;;0.50;0.50;;;;;;;11.22;93.16;96745.50;29395;434;63009;-54
2022/12/31 01:18:29;;;;;;;0.50;0.50;;;;;;;11.22;93.29;96750.94;29395;465;63004;-54
2022/12/31 01:19:04;;;;;;;0.50;0.50;;;;;;;11.22;93.36;96745.50;29394;241;64009;-53
2022/12/31 01:19:35;;;;;;;0.50;0.50;;;;;;;11.25;93.18;96760.41;29395;252;63004;-55
2022/12/31 01:20:07;;;;;;;0.50;0.50;;;;;;;11.26;93.00;96757.38;29395;258;63014;-53
2022/12/31 01:20:41;;;;;;;0.50;0.50;;;;;;;11.25;93.37;96750.34;29395;202;63004;-59
2022/12/31 01:21:13;;;;;;;0.50;0.50;;;;;;;11.23;92.85;96747.13;29395;203;63009;-53
2022/12/31 01:21:50;;;;;;;0.45;0.45;;;;;;;11.23;93.22;96757.19;29395;226;63005;-55
2022/12/31 01:22:21;;;;;;;0.50;0.50;;;;;;;11.26;92.83;96768.25;29394;200;64009;-53
2022/12/31 01:22:53;;;;;;;0.55;0.55;;;;;;;11.31;92.75;96762.72;29395;214;63005;-53
2022/12/31 01:23:24;;;;;;;0.50;0.50;;;;;;;11.34;92.38;96759.41;29395;240;63009;-55
2022/12/31 01:23:56;;;;;;;0.50;0.50;;;;;;;11.35;92.45;96765.66;29395;386;63005;-54
2022/12/31 01:24:28;;;;;;;0.50;0.50;;;;;;;11.36;92.34;96764.53;29394;217;64009;-56
2022/12/31 01:24:59;;;;;;;0.50;0.50;;;;;;;11.38;92.23;96765.84;29395;256;63005;-52
2022/12/31 01:25:30;;;;;;;0.50;0.50;;;;;;;11.37;92.35;96769.69;29395;237;63009;-53
2022/12/31 01:26:07;;;;;;;0.50;0.50;;;;;;;11.36;92.27;96781.66;29395;261;63004;-53
2022/12/31 01:26:39;;;;;;;0.60;0.60;;;;;;;11.36;92.14;96781.66;29395;373;63009;-55
2022/12/31 01:27:10;;;;;;;0.50;0.50;;;;;;;11.39;92.17;96775.63;29395;256;63004;-53
2022/12/31 01:27:41;;;;;;;0.50;0.50;;;;;;;11.38;91.82;96768.56;29395;218;63009;-53
2022/12/31 01:28:13;;;;;;;0.50;0.50;;;;;;;11.41;92.14;96781.56;29395;215;63004;-57
2022/12/31 01:28:45;;;;;;;0.50;0.50;;;;;;;11.45;91.65;96772.78;29395;212;63009;-54
2022/12/31 01:29:16;;;;;;;0.47;0.47;;;;;;;11.44;91.49;96777.41;29395;247;63005;-54
2022/12/31 01:29:48;;;;;;;0.50;0.50;;;;;;;11.44;91.47;96774.69;29394;255;64009;-54
2022/12/31 01:30:19;;;;;;;0.60;0.60;;;;;;;11.43;91.41;96779.31;29394;240;64005;-55
2022/12/31 01:30:51;;;;;;;0.50;0.50;;;;;;;11.43;91.41;96773.88;29395;213;63009;-54
2022/12/31 01:31:23;;;;;;;0.50;0.50;;;;;;;11.43;91.42;96782.03;29395;206;63005;-55
2022/12/31 01:31:54;;;;;;;0.50;0.50;;;;;;;11.46;90.94;96775.19;29395;204;63027;-54
2022/12/31 01:32:26;;;;;;;0.50;0.50;;;;;;;11.41;91.40;96773.41;29394;197;64005;-53
2022/12/31 01:33:00;;;;;;;0.50;0.50;;;;;;;11.46;91.24;96777.09;29395;203;63016;-53
2022/12/31 01:33:32;;;;;;;0.50;0.50;;;;;;;11.47;91.21;96773.28;29395;228;63004;-54
2022/12/31 01:34:04;;;;;;;0.50;0.50;;;;;;;11.46;91.44;96777.09;29395;197;63009;-53
2022/12/31 01:34:35;;;;;;;0.40;0.40;;;;;;;11.43;91.22;96779.31;29394;216;64004;-55
2022/12/31 01:35:08;;;;;;;0.50;0.50;;;;;;;11.46;91.12;96785.25;29395;196;63009;-54
2022/12/31 01:35:42;;;;;;;0.65;0.60;;;;;;;11.52;91.06;96786.78;29395;241;63004;-56
2022/12/31 01:36:16;;;;;;;0.50;0.50;;;;;;;11.54;90.63;96785.37;29395;225;63009;-55
2022/12/31 01:36:48;;;;;;;0.50;0.50;;;;;;;11.56;90.59;96787.78;29395;242;63018;-54
2022/12/31 01:37:19;;;;;;;0.50;0.50;;;;;;;11.57;90.21;96781.25;29395;256;63009;-63
2022/12/31 01:37:51;;;;;;;0.50;0.50;;;;;;;11.56;90.57;96793.22;29395;247;63005;-53
2022/12/31 01:38:22;;;;;;;0.50;0.50;;;;;;;11.54;90.46;96795.44;29395;196;63009;-54
2022/12/31 01:38:55;;;;;;;0.43;0.43;;;;;;;11.50;90.61;96795.22;29395;222;63005;-62
2022/12/31 01:39:26;;;;;;;0.45;0.45;;;;;;;11.52;90.43;96792.22;29394;237;64009;-55
2022/12/31 01:39:57;;;;;;;0.50;0.50;;;;;;;11.53;90.34;96794.63;29395;198;63005;-57
2022/12/31 01:40:29;;;;;;;0.50;0.50;;;;;;;11.53;90.42;96794.63;29395;233;63009;-53
2022/12/31 01:41:01;;;;;;;0.62;0.62;;;;;;;11.52;90.62;96792.22;29395;268;63004;-53
2022/12/31 01:41:36;;;;;;;0.50;0.50;;;;;;;11.50;90.69;96789.00;29395;261;63009;-54
2022/12/31 01:42:10;;;;;;;0.50;0.50;;;;;;;11.50;90.62;96794.41;29394;259;64004;-54
2022/12/31 01:42:42;;;;;;;0.50;0.50;;;;;;;11.49;90.59;96784.66;29395;267;63009;-54
2022/12/31 01:43:18;;;;;;;0.50;0.50;;;;;;;11.48;90.84;96802.06;29395;220;63009;-54
2022/12/31 01:43:53;;;;;;;0.50;0.50;;;;;;;11.46;90.65;96793.41;29395;218;63009;-53
2022/12/31 01:44:48;;;;;;;0.50;0.50;;;;;;;11.47;90.59;96790.41;29395;392;63005;-55
2022/12/31 01:45:19;;;;;;;0.52;0.52;;;;;;;11.50;90.60;96784.34;29395;321;63009;-54
2022/12/31 01:45:53;;;;;;;0.50;0.50;;;;;;;11.50;90.64;96794.41;29396;392;63015;-54
2022/12/31 01:46:46;;;;;;;0.50;0.50;;;;;;;11.46;90.91;96782.53;29395;243;63009;-54
2022/12/31 01:47:36;;;;;;;0.50;0.50;;;;;;;11.45;90.77;96791.78;29394;412;64005;-54
2022/12/31 01:48:11;;;;;;;0.50;0.50;;;;;;;11.43;90.78;96782.03;29395;371;63026;-54
2022/12/31 01:48:50;;;;;;;0.52;0.52;;;;;;;11.43;91.16;96792.91;29395;227;63004;-54
2022/12/31 01:49:48;;;;;;;0.50;0.50;;;;;;;11.46;91.07;96791.50;29395;244;63009;-54
2022/12/31 01:50:28;;;;;;;0.50;0.50;;;;;;;11.47;90.67;96784.16;29395;216;63004;-54
2022/12/31 01:50:59;;;;;;;0.50;0.50;;;;;;;11.55;90.30;96778.03;29395;326;63008;-59
2022/12/31 01:51:34;;;;;;;0.50;0.50;;;;;;;11.60;90.03;96786.09;29395;230;63005;-58
2022/12/31 01:52:17;;;;;;;0.50;0.50;;;;;;;11.66;89.58;96787.59;29395;237;63009;-56
2022/12/31 01:53:05;;;;;;;0.50;0.50;;;;;;;11.67;89.15;96784.59;29394;200;64005;-55
2022/12/31 01:53:37;;;;;;;0.50;0.50;;;;;;;11.71;89.36;96776.63;29395;199;63009;-57
2022/12/31 01:54:12;;;;;;;0.52;0.52;;;;;;;11.72;88.82;96791.84;29395;229;63005;-55
2022/12/31 01:55:02;;;;;;;0.50;0.50;;;;;;;11.73;88.59;96782.56;29395;203;63009;-54
2022/12/31 01:55:46;;;;;;;0.50;0.50;;;;;;;11.69;89.04;96787.00;29395;299;63004;-54
2022/12/31 01:56:21;;;;;;;0.50;0.50;;;;;;;11.66;88.80;96795.75;29395;221;63009;-54
2022/12/31 01:56:55;;;;;;;0.50;0.50;;;;;;;11.64;89.12;96800.69;29395;226;63018;-54
2022/12/31 01:57:27;;;;;;;0.47;0.47;;;;;;;11.64;88.88;96800.69;29395;436;63009;-54
2022/12/31 01:58:05;;;;;;;0.50;0.50;;;;;;;11.64;88.74;96800.69;29394;202;64004;-53
2022/12/31 01:58:42;;;;;;;0.50;0.50;;;;;;;11.64;88.86;96800.69;29395;249;63008;-54
2022/12/31 01:59:16;;;;;;;0.50;0.50;;;;;;;11.60;88.89;96795.03;29394;255;64005;-54
2022/12/31 01:59:48;;;;;;;0.50;0.50;;;;;;;11.60;88.85;96805.91;29395;274;63009;-54
2022/12/31 02:00:20;;;;;;;0.50;0.50;;;;;;;11.63;88.83;96799.87;29395;241;63005;-54
2022/12/31 02:00:52;;;;;;;0.50;0.50;;;;;;;11.63;88.60;96804.50;29395;258;63009;-54
2022/12/31 02:01:28;;;;;;;0.50;0.50;;;;;;;11.60;88.63;96799.66;29395;234;63005;-54
2022/12/31 02:02:00;;;;;;;0.50;0.50;;;;;;;11.56;88.59;96802.19;29395;222;63009;-53
2022/12/31 02:02:31;;;;;;;0.50;0.50;;;;;;;11.53;88.91;96801.97;29395;226;63004;-64
2022/12/31 02:03:05;;;;;;;0.50;0.50;;;;;;;11.52;88.94;96809.31;29395;229;63009;-55
2022/12/31 02:03:40;;;;;;;0.50;0.50;;;;;;;11.55;88.97;96802.47;29395;206;63004;-54
2022/12/31 02:04:14;;;;;;;1.27;1.25;;;;;;;11.54;88.90;96803.59;29395;240;63014;-54
2022/12/31 02:04:47;;;;;;;0.50;0.50;;;;;;;11.54;88.95;96800.87;29394;202;64004;-53
2022/12/31 02:05:51;;;;;;;0.50;0.50;;;;;;;11.53;88.92;96801.97;29395;202;63008;-53
2022/12/31 02:06:32;;;;;;;0.50;0.50;;;;;;;11.51;89.08;96796.03;29395;298;63005;-53
2022/12/31 02:07:06;;;;;;;0.52;0.52;;;;;;;11.52;88.95;96794.94;29395;225;63009;-54
2022/12/31 02:07:38;;;;;;;0.50;0.50;;;;;;;11.52;88.60;96793.03;29395;209;63005;-55
2022/12/31 02:08:10;;;;;;;0.50;0.50;;;;;;;11.54;88.46;96795.44;29395;243;63009;-54
2022/12/31 02:08:43;;;;;;;0.50;0.50;;;;;;;11.53;88.65;96788.38;29395;220;63005;-54
2022/12/31 02:09:15;;;;;;;0.50;0.50;;;;;;;11.52;88.73;96792.22;29394;220;64009;-53
2022/12/31 02:09:46;;;;;;;0.50;0.50;;;;;;;11.50;88.64;96794.41;29395;196;63004;-54
2022/12/31 02:10:17;;;;;;;0.50;0.50;;;;;;;11.50;88.80;96794.41;29395;208;63014;-58
2022/12/31 02:10:48;;;;;;;0.50;0.50;;;;;;;11.53;88.81;96799.25;29395;252;63004;-53
2022/12/31 02:11:36;;;;;;;0.50;0.50;;;;;;;11.50;89.01;96800.66;29395;228;63009;-54
2022/12/31 02:12:11;;;;;;;0.50;0.50;;;;;;;11.49;88.66;96795.53;29394;235;64004;-55
2022/12/31 02:12:42;;;;;;;0.50;0.50;;;;;;;11.50;88.78;96800.66;29395;227;63008;-53
2022/12/31 02:13:14;;;;;;;0.50;0.50;;;;;;;11.49;88.88;96792.81;29394;227;64005;-55
2022/12/31 02:13:49;;;;;;;0.50;0.50;;;;;;;11.53;88.24;96788.38;29395;262;63009;-56
2022/12/31 02:14:25;;;;;;;0.50;0.50;;;;;;;11.55;88.12;96797.03;29394;227;64005;-53
2022/12/31 02:14:57;;;;;;;0.50;0.50;;;;;;;11.55;88.03;96797.03;29395;251;63009;-53
2022/12/31 02:15:57;;;;;;;0.50;0.50;;;;;;;11.56;87.98;96809.53;29395;206;63005;-56
2022/12/31 02:17:01;;;;;;;0.50;0.50;;;;;;;11.56;87.52;96795.94;29395;250;63005;-53
2022/12/31 02:18:00;;;;;;;0.50;0.50;;;;;;;11.57;87.61;96808.44;29395;207;63009;-54
2022/12/31 02:18:44;;;;;;;0.50;0.50;;;;;;;11.57;87.58;96794.84;29395;386;63004;-68
2022/12/31 02:19:56;;;;;;;0.50;0.50;;;;;;;11.53;87.40;96802.78;29394;198;64009;-54
2022/12/31 02:21:06;;;;;;;0.50;0.50;;;;;;;11.56;87.33;96809.53;29395;428;63004;-53
2022/12/31 02:22:15;;;;;;;0.55;0.55;;;;;;;11.61;87.06;96809.44;29395;547;63012;-56
2022/12/31 02:23:34;;;;;;;0.50;0.50;;;;;;;11.62;86.47;96808.34;29394;318;64005;-55
2022/12/31 02:24:41;;;;;;;0.50;0.50;;;;;;;11.62;86.50;96805.63;29395;259;63005;-53
2022/12/31 02:25:53;;;;;;;0.50;0.50;;;;;;;11.61;86.57;96812.97;29395;285;63009;-53
2022/12/31 02:27:05;;;;;;;0.60;0.60;;;;;;;11.59;86.91;96808.94;29417;209;63004;-55
2022/12/31 02:28:10;;;;;;;0.50;0.50;;;;;;;11.53;86.75;96802.78;29393;213;64008;-54
2022/12/31 02:29:41;;;;;;;0.50;0.50;;;;;;;11.46;87.54;96804.28;29395;244;63005;-53
2022/12/31 02:30:23;;;;;;;0.50;0.50;;;;;;;11.47;87.32;96800.44;29395;230;63009;-53
2022/12/31 02:31:29;;;;;;;0.50;0.50;;;;;;;11.47;87.20;96805.88;29395;383;63005;-53
2022/12/31 02:32:16;;;;;;;0.50;0.50;;;;;;;11.46;87.19;96805.09;29394;372;64009;-53
2022/12/31 02:33:13;;;;;;;0.50;0.50;;;;;;;11.49;87.06;96800.97;29395;236;63004;-54
2022/12/31 02:34:30;;;;;;;0.50;0.50;;;;;;;11.51;86.95;96812.34;29395;250;63009;-54
2022/12/31 02:35:14;;;;;;;0.50;0.50;;;;;;;11.51;86.78;96809.63;29394;257;64004;-54
2022/12/31 02:36:02;;;;;;;0.50;0.50;;;;;;;11.47;86.96;96806.69;29395;331;63009;-53
2022/12/31 02:36:37;;;;;;;0.50;0.50;;;;;;;11.49;87.06;96803.69;29394;294;64005;-54
2022/12/31 02:37:16;;;;;;;0.50;0.50;;;;;;;11.48;86.95;96808.31;29395;253;63009;-54
2022/12/31 02:37:53;;;;;;;0.50;0.50;;;;;;;11.47;86.89;96812.12;29394;242;64005;-54
2022/12/31 02:38:31;;;;;;;0.60;0.60;;;;;;;11.50;86.75;96802.56;29395;255;63009;-54
2022/12/31 02:39:05;;;;;;;0.50;0.50;;;;;;;11.52;86.62;96808.50;29395;264;63005;-56
2022/12/31 02:39:38;;;;;;;0.40;0.40;;;;;;;11.54;86.51;96809.03;29394;196;64009;-53
2022/12/31 02:40:14;;;;;;;0.50;0.50;;;;;;;11.53;86.46;96810.13;29395;231;63007;-55
2022/12/31 02:40:46;;;;;;;0.50;0.50;;;;;;;11.51;86.46;96812.34;29395;270;63009;-54
2022/12/31 02:42:10;;;;;;;0.50;0.50;;;;;;;11.51;86.72;96807.72;29417;225;63009;-54
2022/12/31 02:42:41;;;;;;;0.50;0.50;;;;;;;11.51;86.66;96825.91;29395;243;63004;-53
2022/12/31 02:43:13;;;;;;;0.50;0.50;;;;;;;11.50;86.91;96825.13;29394;217;64008;-54
2022/12/31 02:43:47;;;;;;;0.50;0.50;;;;;;;11.51;86.97;96823.19;29395;204;63005;-53
2022/12/31 02:44:35;;;;;;;0.47;0.47;;;;;;;11.52;86.84;96813.94;29395;214;63009;-55
2022/12/31 02:45:11;;;;;;;0.50;0.50;;;;;;;11.48;86.45;96824.59;29395;220;63005;-54
2022/12/31 02:46:17;;;;;;;0.50;0.50;;;;;;;11.51;86.68;96817.78;29394;386;64009;-54
2022/12/31 02:47:28;;;;;;;0.50;0.50;;;;;;;11.63;86.07;96826.25;29395;249;63005;-53
2022/12/31 02:48:32;;;;;;;0.50;0.50;;;;;;;11.63;85.91;96820.81;29394;397;64009;-53
2022/12/31 02:49:28;;;;;;;0.50;0.50;;;;;;;11.65;85.50;96821.31;29395;197;63015;-53
2022/12/31 02:50:31;;;;;;;0.50;0.50;;;;;;;11.70;85.19;96818.50;29395;196;63008;-55
2022/12/31 02:51:28;;;;;;;0.50;0.50;;;;;;;11.74;85.05;96811.38;29394;202;64005;-54
2022/12/31 02:52:32;;;;;;;0.50;0.50;;;;;;;11.78;84.68;96806.97;29395;291;63005;-52
2022/12/31 02:53:54;;;;;;;0.50;0.50;;;;;;;11.73;84.65;96813.28;29395;424;63005;-54
2022/12/31 02:54:39;;;;;;;0.45;0.45;;;;;;;11.71;84.94;96801.09;29417;239;63005;-53
2022/12/31 02:56:02;;;;;;;0.50;0.50;;;;;;;11.70;85.17;96813.88;29394;224;64009;-53
2022/12/31 02:57:10;;;;;;;0.50;0.50;;;;;;;11.70;85.20;96815.78;29417;231;63004;-53
2022/12/31 03:02:12;;;;;;;0.50;0.50;;;;;;;11.74;84.57;96819.53;29395;196;63008;-54
2022/12/31 03:02:28;;;;;;;0.50;0.50;;;;;;;11.69;84.77;96806.81;29395;291;63009;-53